createdAt,value
2019-03-21T00:01:23.535Z,7.60
2019-03-21T00:11:58.455Z,16.07
2019-03-21T00:21:59.141Z,7.50
2019-03-21T00:32:00.932Z,9.27
2019-03-21T00:42:02.817Z,7.70
2019-03-21T00:52:03.628Z,7.50
2019-03-21T01:02:05.314Z,7.40
2019-03-21T01:12:07.345Z,7.63
2019-03-21T01:22:09.218Z,7.77
2019-03-21T01:32:09.890Z,7.33
2019-03-21T01:42:10.809Z,7.43
2019-03-21T01:52:11.569Z,7.77
2019-03-21T02:02:12.570Z,7.47
2019-03-21T02:12:13.395Z,7.87
2019-03-21T02:22:14.155Z,7.33
2019-03-21T02:32:14.872Z,8.67
2019-03-21T02:42:15.989Z,8.60
2019-03-21T02:52:16.889Z,7.37
2019-03-21T03:02:27.716Z,7.83
2019-03-21T03:12:28.523Z,7.73
2019-03-21T03:22:34.978Z,8.07
2019-03-21T03:32:36.869Z,7.87
2019-03-21T03:42:37.722Z,9.07
2019-03-21T03:52:38.521Z,8.77
2019-03-21T04:02:39.396Z,7.83
2019-03-21T04:12:40.298Z,8.53
2019-03-21T04:22:42.206Z,7.90
2019-03-21T04:32:43.434Z,8.83
2019-03-21T04:42:48.288Z,7.20
2019-03-21T04:52:54.861Z,8.97
2019-03-21T05:03:01.401Z,8.77
2019-03-21T05:13:06.073Z,9.33
2019-03-21T05:23:06.804Z,8.63
2019-03-21T05:33:07.483Z,10.83
2019-03-21T05:43:14.531Z,11.13
2019-03-21T05:53:15.275Z,10.23
2019-03-21T06:03:22.208Z,9.70
2019-03-21T06:13:22.954Z,7.50
2019-03-21T06:23:48.759Z,16.50
2019-03-21T06:33:49.516Z,10.40
2019-03-21T06:43:50.165Z,9.33
2019-03-21T06:53:52.959Z,17.33
2019-03-21T07:03:53.704Z,17.10
2019-03-21T07:13:55.521Z,8.63
2019-03-21T07:23:56.163Z,7.60
2019-03-21T07:33:57.893Z,8.93
2019-03-21T07:43:58.540Z,9.07
2019-03-21T07:53:59.210Z,8.50
2019-03-21T08:03:59.892Z,8.60
2019-03-21T08:14:02.849Z,8.77
2019-03-21T08:24:03.633Z,7.90
2019-03-21T08:34:04.411Z,8.97
2019-03-21T08:44:05.102Z,8.43
2019-03-21T08:54:06.026Z,7.77
2019-03-21T09:04:06.872Z,7.37
2019-03-21T09:14:08.794Z,6.50
2019-03-21T09:24:09.522Z,5.90
2019-03-21T09:34:10.341Z,8.07
2019-03-21T09:44:11.055Z,7.77
2019-03-21T09:54:11.850Z,7.10
2019-03-21T10:04:12.480Z,19.60
2019-03-21T10:14:13.212Z,7.90
2019-03-21T10:24:14.876Z,6.50
2019-03-21T10:34:15.559Z,7.63
2019-03-21T10:44:17.300Z,7.60
2019-03-21T10:54:18.122Z,6.67
2019-03-21T11:04:18.873Z,6.47
2019-03-21T11:14:19.751Z,7.30
2019-03-21T11:24:20.431Z,5.63
2019-03-21T11:34:22.318Z,4.30
2019-03-21T11:44:23.008Z,4.60
2019-03-21T11:54:23.712Z,4.30
2019-03-21T12:04:38.703Z,3.87
2019-03-21T12:14:40.536Z,3.27
2019-03-21T12:24:41.433Z,3.10
2019-03-21T12:34:42.390Z,3.33
2019-03-21T12:44:49.474Z,2.87
2019-03-21T12:54:50.828Z,2.57
2019-03-21T13:04:52.472Z,2.50
2019-03-21T13:14:54.170Z,2.10
2019-03-21T13:25:04.245Z,3.23
2019-03-21T13:35:07.161Z,3.33
2019-03-21T13:45:07.962Z,2.90
2019-03-21T13:55:17.551Z,3.13
2019-03-21T14:05:18.433Z,2.83
2019-03-21T14:15:19.186Z,3.17
2019-03-21T14:25:19.836Z,2.97
2019-03-21T14:35:21.621Z,3.20
2019-03-21T14:45:28.524Z,3.43
2019-03-21T14:55:32.997Z,3.40
2019-03-21T15:05:42.545Z,4.27
2019-03-21T15:15:43.379Z,4.30
2019-03-21T15:25:44.162Z,3.77
2019-03-21T15:35:45.918Z,2.93
2019-03-21T15:45:53.429Z,2.57
2019-03-21T15:55:54.209Z,3.07
2019-03-21T16:05:55.968Z,2.03
2019-03-21T16:15:56.758Z,1.73
2019-03-21T16:26:04.511Z,2.13
2019-03-21T16:36:06.394Z,1.80
2019-03-21T16:46:08.137Z,1.80
2019-03-21T16:56:10.017Z,1.80
2019-03-21T17:06:10.810Z,2.57
2019-03-21T17:16:12.571Z,6.77
2019-03-21T17:26:15.768Z,1.03
2019-03-21T17:36:15.965Z,5.47
2019-03-21T17:46:24.479Z,5.30
2019-03-21T17:56:25.216Z,1.57
2019-03-21T18:06:28.058Z,0.90
2019-03-21T18:16:28.913Z,0.90
2019-03-21T18:26:30.638Z,1.37
2019-03-21T18:36:31.483Z,0.83
2019-03-21T18:46:32.222Z,1.17
2019-03-21T18:56:34.076Z,1.10
2019-03-21T19:06:34.827Z,1.10
2019-03-21T19:16:36.556Z,1.87
2019-03-21T19:26:38.350Z,1.53
2019-03-21T19:36:39.185Z,1.40
2019-03-21T19:46:48.773Z,1.47
2019-03-21T19:56:49.594Z,2.70
2019-03-21T20:06:50.375Z,4.37
2019-03-21T20:16:51.111Z,2.70
2019-03-21T20:26:51.794Z,2.30
2019-03-21T20:36:53.604Z,2.63
2019-03-21T20:46:54.409Z,5.73
2019-03-21T20:56:55.222Z,16.77
2019-03-21T21:06:56.320Z,3.13
2019-03-21T21:16:57.010Z,2.80
2019-03-21T21:26:59.684Z,2.33
2019-03-21T21:37:08.598Z,2.17
2019-03-21T21:47:18.150Z,2.60
2019-03-21T21:57:19.051Z,2.70
2019-03-21T22:07:23.267Z,2.60
2019-03-21T22:17:29.837Z,2.70
2019-03-21T22:27:36.438Z,2.27
2019-03-21T22:37:37.271Z,2.43
2019-03-21T22:47:41.110Z,2.17
2019-03-21T22:57:42.063Z,2.93
2019-03-21T23:07:42.753Z,2.53
2019-03-21T23:17:43.658Z,2.50
2019-03-21T23:27:47.564Z,2.03
2019-03-21T23:37:48.364Z,2.33
2019-03-21T23:47:53.251Z,1.93
2019-03-21T23:57:53.921Z,1.73
